ストックホルム/アーランダ の空港の天気 - METARとTAF

ストックホルム・アーランダ空港 ( ESSA / ARN ) - スウェーデン ストックホルム
飛行場実況気象(Metar)
観測時間09/25 03:50 CEST (09/25 01:50 UTC)
風向・風速西北西 5m/s
視程10km以上
天気現象
なし
気温3℃
湿度70%
気圧1022hPa
METARESSA 250150Z 30009KT CAVOK 03/M02 Q1022 NOSIG
過去の天気等 Google飛行場航空写真 Wunderground天気予報

過去48時間のMETAR

飛行場予報(TAF)
発表時間: 9/25 01:30 CEST (9/24 23:30 UTC)
予報対象時間: 25日2時 CEST ~ 26日2時 CEST
風向・風速北西 3m/s
視程10km以上
なし
25日12時 CEST ~ 25日14時 CEST に徐々に
風向・風速西南西 6m/s 瞬間風速 11m/s
TAF ESSA 242330Z 2500/2524 31005KT CAVOK
BECMG 2510/2512 25012G22KT